sensor_id;sensor_type;location;lat;lon;timestamp;P1;durP1;ratioP1;P2;durP2;ratioP2
70369;SDS011;57790;51.356;-2.906;2023-04-21T00:00:51;5.07;;;1.10;;
70369;SDS011;57790;51.356;-2.906;2023-04-21T00:03:52;5.43;;;1.23;;
70369;SDS011;57790;51.356;-2.906;2023-04-21T00:06:54;5.18;;;1.02;;
70369;SDS011;57790;51.356;-2.906;2023-04-21T00:09:54;6.47;;;1.23;;
70369;SDS011;57790;51.356;-2.906;2023-04-21T00:12:55;4.63;;;1.00;;
70369;SDS011;57790;51.356;-2.906;2023-04-21T00:15:55;6.20;;;1.10;;
70369;SDS011;57790;51.356;-2.906;2023-04-21T00:18:55;6.03;;;0.97;;
70369;SDS011;57790;51.356;-2.906;2023-04-21T00:21:56;6.17;;;0.93;;
70369;SDS011;57790;51.356;-2.906;2023-04-21T00:24:58;7.38;;;1.25;;
70369;SDS011;57790;51.356;-2.906;2023-04-21T00:27:59;6.07;;;1.30;;
70369;SDS011;57790;51.356;-2.906;2023-04-21T00:30:59;5.03;;;1.50;;
70369;SDS011;57790;51.356;-2.906;2023-04-21T00:33:59;7.83;;;1.50;;
70369;SDS011;57790;51.356;-2.906;2023-04-21T00:37:00;6.33;;;1.30;;
70369;SDS011;57790;51.356;-2.906;2023-04-21T00:40:00;6.57;;;1.77;;
70369;SDS011;57790;51.356;-2.906;2023-04-21T00:43:04;9.17;;;1.60;;
70369;SDS011;57790;51.356;-2.906;2023-04-21T00:46:05;7.05;;;1.50;;
70369;SDS011;57790;51.356;-2.906;2023-04-21T00:49:06;7.30;;;1.77;;
70369;SDS011;57790;51.356;-2.906;2023-04-21T00:52:07;8.93;;;1.50;;
70369;SDS011;57790;51.356;-2.906;2023-04-21T00:55:08;9.15;;;2.08;;
70369;SDS011;57790;51.356;-2.906;2023-04-21T00:58:09;6.23;;;1.60;;
70369;SDS011;57790;51.356;-2.906;2023-04-21T01:01:09;7.25;;;1.73;;
70369;SDS011;57790;51.356;-2.906;2023-04-21T01:04:11;6.60;;;1.67;;
70369;SDS011;57790;51.356;-2.906;2023-04-21T01:07:12;8.93;;;1.73;;
70369;SDS011;57790;51.356;-2.906;2023-04-21T01:10:13;7.70;;;2.00;;
70369;SDS011;57790;51.356;-2.906;2023-04-21T01:13:13;7.60;;;1.50;;
70369;SDS011;57790;51.356;-2.906;2023-04-21T01:16:17;7.50;;;1.67;;
70369;SDS011;57790;51.356;-2.906;2023-04-21T01:19:17;7.82;;;1.55;;
70369;SDS011;57790;51.356;-2.906;2023-04-21T01:22:19;7.57;;;1.90;;
70369;SDS011;57790;51.356;-2.906;2023-04-21T01:25:19;8.73;;;1.57;;
70369;SDS011;57790;51.356;-2.906;2023-04-21T01:28:24;5.68;;;1.67;;
70369;SDS011;57790;51.356;-2.906;2023-04-21T01:31:25;7.80;;;1.77;;
70369;SDS011;57790;51.356;-2.906;2023-04-21T01:34:26;7.05;;;1.90;;
70369;SDS011;57790;51.356;-2.906;2023-04-21T01:37:28;8.23;;;1.90;;
70369;SDS011;57790;51.356;-2.906;2023-04-21T01:40:30;6.68;;;1.75;;
70369;SDS011;57790;51.356;-2.906;2023-04-21T01:43:31;8.85;;;2.17;;
70369;SDS011;57790;51.356;-2.906;2023-04-21T01:46:31;8.83;;;2.00;;
70369;SDS011;57790;51.356;-2.906;2023-04-21T01:49:32;9.07;;;1.90;;
70369;SDS011;57790;51.356;-2.906;2023-04-21T01:52:32;8.13;;;2.10;;
70369;SDS011;57790;51.356;-2.906;2023-04-21T01:55:33;7.23;;;2.03;;
70369;SDS011;57790;51.356;-2.906;2023-04-21T01:58:33;7.83;;;2.00;;
70369;SDS011;57790;51.356;-2.906;2023-04-21T02:01:33;8.77;;;2.30;;
70369;SDS011;57790;51.356;-2.906;2023-04-21T02:04:35;9.10;;;2.03;;
70369;SDS011;57790;51.356;-2.906;2023-04-21T02:07:35;9.03;;;2.50;;
70369;SDS011;57790;51.356;-2.906;2023-04-21T02:10:36;7.83;;;2.20;;
70369;SDS011;57790;51.356;-2.906;2023-04-21T02:13:36;8.82;;;2.72;;
70369;SDS011;57790;51.356;-2.906;2023-04-21T02:16:37;8.17;;;2.23;;
70369;SDS011;57790;51.356;-2.906;2023-04-21T02:19:37;6.77;;;1.80;;
70369;SDS011;57790;51.356;-2.906;2023-04-21T02:22:38;8.30;;;2.27;;
70369;SDS011;57790;51.356;-2.906;2023-04-21T02:25:38;7.00;;;2.00;;
70369;SDS011;57790;51.356;-2.906;2023-04-21T02:28:39;6.90;;;2.00;;
70369;SDS011;57790;51.356;-2.906;2023-04-21T02:31:39;6.80;;;2.07;;
70369;SDS011;57790;51.356;-2.906;2023-04-21T02:34:40;8.13;;;2.00;;
70369;SDS011;57790;51.356;-2.906;2023-04-21T02:37:41;11.40;;;2.70;;
70369;SDS011;57790;51.356;-2.906;2023-04-21T02:40:42;9.70;;;2.30;;
70369;SDS011;57790;51.356;-2.906;2023-04-21T02:43:42;8.10;;;2.40;;
70369;SDS011;57790;51.356;-2.906;2023-04-21T02:46:42;8.00;;;2.30;;
70369;SDS011;57790;51.356;-2.906;2023-04-21T02:49:43;9.05;;;2.45;;
70369;SDS011;57790;51.356;-2.906;2023-04-21T02:52:43;8.93;;;2.37;;
70369;SDS011;57790;51.356;-2.906;2023-04-21T02:55:44;10.27;;;2.80;;
70369;SDS011;57790;51.356;-2.906;2023-04-21T02:58:44;10.50;;;3.10;;
70369;SDS011;57790;51.356;-2.906;2023-04-21T03:01:45;8.75;;;2.30;;
70369;SDS011;57790;51.356;-2.906;2023-04-21T03:04:46;10.07;;;2.40;;
70369;SDS011;57790;51.356;-2.906;2023-04-21T03:07:47;9.63;;;2.87;;
70369;SDS011;57790;51.356;-2.906;2023-04-21T03:10:47;11.73;;;2.93;;
70369;SDS011;57790;51.356;-2.906;2023-04-21T03:13:48;8.87;;;3.00;;
70369;SDS011;57790;51.356;-2.906;2023-04-21T03:16:48;10.30;;;3.17;;
70369;SDS011;57790;51.356;-2.906;2023-04-21T03:19:48;9.40;;;2.60;;
70369;SDS011;57790;51.356;-2.906;2023-04-21T03:22:49;8.67;;;2.73;;
70369;SDS011;57790;51.356;-2.906;2023-04-21T03:25:52;8.52;;;2.75;;
70369;SDS011;57790;51.356;-2.906;2023-04-21T03:28:52;10.47;;;3.03;;
70369;SDS011;57790;51.356;-2.906;2023-04-21T03:31:53;9.77;;;3.08;;
70369;SDS011;57790;51.356;-2.906;2023-04-21T03:34:53;10.20;;;2.40;;
70369;SDS011;57790;51.356;-2.906;2023-04-21T03:37:54;14.37;;;3.10;;
70369;SDS011;57790;51.356;-2.906;2023-04-21T03:40:54;9.80;;;2.87;;
70369;SDS011;57790;51.356;-2.906;2023-04-21T03:43:54;9.90;;;2.70;;
70369;SDS011;57790;51.356;-2.906;2023-04-21T03:46:55;7.63;;;2.67;;
70369;SDS011;57790;51.356;-2.906;2023-04-21T03:49:56;7.93;;;2.53;;
70369;SDS011;57790;51.356;-2.906;2023-04-21T03:52:56;10.43;;;2.63;;
70369;SDS011;57790;51.356;-2.906;2023-04-21T03:55:57;11.00;;;2.60;;
70369;SDS011;57790;51.356;-2.906;2023-04-21T03:58:57;8.13;;;2.60;;
70369;SDS011;57790;51.356;-2.906;2023-04-21T04:01:57;8.97;;;2.73;;
70369;SDS011;57790;51.356;-2.906;2023-04-21T04:04:58;10.57;;;2.63;;
70369;SDS011;57790;51.356;-2.906;2023-04-21T04:07:58;8.63;;;2.43;;
70369;SDS011;57790;51.356;-2.906;2023-04-21T04:10:59;10.43;;;3.30;;
70369;SDS011;57790;51.356;-2.906;2023-04-21T04:13:59;9.50;;;3.07;;
70369;SDS011;57790;51.356;-2.906;2023-04-21T04:16:59;9.40;;;3.07;;
70369;SDS011;57790;51.356;-2.906;2023-04-21T04:20:00;10.13;;;3.20;;
70369;SDS011;57790;51.356;-2.906;2023-04-21T04:23:00;9.37;;;3.10;;
70369;SDS011;57790;51.356;-2.906;2023-04-21T04:26:01;10.73;;;3.30;;
70369;SDS011;57790;51.356;-2.906;2023-04-21T04:29:04;9.40;;;3.50;;
70369;SDS011;57790;51.356;-2.906;2023-04-21T04:32:09;12.05;;;3.67;;
70369;SDS011;57790;51.356;-2.906;2023-04-21T04:35:10;11.37;;;3.33;;
70369;SDS011;57790;51.356;-2.906;2023-04-21T04:38:12;8.88;;;2.88;;
70369;SDS011;57790;51.356;-2.906;2023-04-21T04:41:14;11.30;;;3.60;;
70369;SDS011;57790;51.356;-2.906;2023-04-21T04:44:15;9.15;;;3.22;;
70369;SDS011;57790;51.356;-2.906;2023-04-21T04:47:16;10.73;;;3.53;;
70369;SDS011;57790;51.356;-2.906;2023-04-21T04:50:17;11.27;;;3.50;;
70369;SDS011;57790;51.356;-2.906;2023-04-21T04:53:17;9.90;;;3.47;;
70369;SDS011;57790;51.356;-2.906;2023-04-21T04:56:18;10.37;;;3.33;;
70369;SDS011;57790;51.356;-2.906;2023-04-21T04:59:18;9.97;;;3.93;;
70369;SDS011;57790;51.356;-2.906;2023-04-21T05:02:18;9.50;;;3.63;;
70369;SDS011;57790;51.356;-2.906;2023-04-21T05:05:19;9.50;;;3.20;;
70369;SDS011;57790;51.356;-2.906;2023-04-21T05:08:20;13.27;;;3.70;;
70369;SDS011;57790;51.356;-2.906;2023-04-21T05:11:21;10.25;;;3.50;;
70369;SDS011;57790;51.356;-2.906;2023-04-21T05:14:22;11.20;;;4.20;;
70369;SDS011;57790;51.356;-2.906;2023-04-21T05:17:22;12.23;;;4.10;;
70369;SDS011;57790;51.356;-2.906;2023-04-21T05:20:22;9.32;;;3.10;;
70369;SDS011;57790;51.356;-2.906;2023-04-21T05:23:23;10.70;;;3.53;;
70369;SDS011;57790;51.356;-2.906;2023-04-21T05:26:24;11.67;;;3.80;;
70369;SDS011;57790;51.356;-2.906;2023-04-21T05:29:26;11.55;;;3.83;;
70369;SDS011;57790;51.356;-2.906;2023-04-21T05:32:26;9.60;;;3.27;;
70369;SDS011;57790;51.356;-2.906;2023-04-21T05:35:31;11.73;;;3.72;;
70369;SDS011;57790;51.356;-2.906;2023-04-21T05:38:32;10.65;;;3.83;;
70369;SDS011;57790;51.356;-2.906;2023-04-21T05:41:32;12.70;;;3.60;;
70369;SDS011;57790;51.356;-2.906;2023-04-21T05:44:32;12.27;;;3.77;;
70369;SDS011;57790;51.356;-2.906;2023-04-21T05:47:33;11.20;;;3.43;;
70369;SDS011;57790;51.356;-2.906;2023-04-21T05:50:33;12.00;;;3.60;;
70369;SDS011;57790;51.356;-2.906;2023-04-21T05:53:34;10.38;;;3.25;;
70369;SDS011;57790;51.356;-2.906;2023-04-21T05:56:35;12.00;;;3.23;;
70369;SDS011;57790;51.356;-2.906;2023-04-21T05:59:35;10.13;;;3.38;;
70369;SDS011;57790;51.356;-2.906;2023-04-21T06:02:36;9.93;;;3.33;;
70369;SDS011;57790;51.356;-2.906;2023-04-21T06:05:36;9.77;;;3.60;;
70369;SDS011;57790;51.356;-2.906;2023-04-21T06:08:36;12.73;;;4.07;;
70369;SDS011;57790;51.356;-2.906;2023-04-21T06:11:37;10.33;;;3.07;;
70369;SDS011;57790;51.356;-2.906;2023-04-21T06:14:37;10.25;;;2.95;;
70369;SDS011;57790;51.356;-2.906;2023-04-21T06:17:38;9.80;;;2.83;;
70369;SDS011;57790;51.356;-2.906;2023-04-21T06:20:38;10.10;;;3.17;;
70369;SDS011;57790;51.356;-2.906;2023-04-21T06:23:40;11.70;;;3.40;;
70369;SDS011;57790;51.356;-2.906;2023-04-21T06:26:40;9.07;;;3.33;;
70369;SDS011;57790;51.356;-2.906;2023-04-21T06:29:41;9.30;;;3.30;;
70369;SDS011;57790;51.356;-2.906;2023-04-21T06:32:42;9.63;;;3.20;;
70369;SDS011;57790;51.356;-2.906;2023-04-21T06:35:45;9.48;;;2.78;;
70369;SDS011;57790;51.356;-2.906;2023-04-21T06:38:45;10.00;;;3.07;;
70369;SDS011;57790;51.356;-2.906;2023-04-21T06:41:45;9.27;;;3.27;;
70369;SDS011;57790;51.356;-2.906;2023-04-21T06:44:46;11.45;;;3.08;;
70369;SDS011;57790;51.356;-2.906;2023-04-21T06:47:46;10.73;;;2.50;;
70369;SDS011;57790;51.356;-2.906;2023-04-21T06:50:47;9.50;;;2.50;;
70369;SDS011;57790;51.356;-2.906;2023-04-21T06:53:47;8.03;;;2.60;;
70369;SDS011;57790;51.356;-2.906;2023-04-21T06:56:47;10.17;;;3.00;;
70369;SDS011;57790;51.356;-2.906;2023-04-21T06:59:50;11.18;;;3.20;;
70369;SDS011;57790;51.356;-2.906;2023-04-21T07:02:50;12.53;;;3.10;;
70369;SDS011;57790;51.356;-2.906;2023-04-21T07:05:51;11.68;;;3.35;;
70369;SDS011;57790;51.356;-2.906;2023-04-21T07:08:51;11.10;;;3.73;;
70369;SDS011;57790;51.356;-2.906;2023-04-21T07:11:51;11.03;;;3.80;;
70369;SDS011;57790;51.356;-2.906;2023-04-21T07:14:52;12.93;;;4.20;;
70369;SDS011;57790;51.356;-2.906;2023-04-21T07:17:52;12.83;;;4.27;;
70369;SDS011;57790;51.356;-2.906;2023-04-21T07:20:53;12.90;;;4.03;;
70369;SDS011;57790;51.356;-2.906;2023-04-21T07:23:53;12.48;;;4.82;;
70369;SDS011;57790;51.356;-2.906;2023-04-21T07:26:53;12.50;;;4.73;;
70369;SDS011;57790;51.356;-2.906;2023-04-21T07:29:54;12.20;;;4.97;;
70369;SDS011;57790;51.356;-2.906;2023-04-21T07:32:54;10.93;;;4.20;;
70369;SDS011;57790;51.356;-2.906;2023-04-21T07:35:55;10.77;;;3.97;;
70369;SDS011;57790;51.356;-2.906;2023-04-21T07:38:55;13.33;;;4.57;;
70369;SDS011;57790;51.356;-2.906;2023-04-21T07:41:56;12.97;;;5.00;;
70369;SDS011;57790;51.356;-2.906;2023-04-21T07:44:56;14.20;;;4.83;;
70369;SDS011;57790;51.356;-2.906;2023-04-21T07:47:57;16.17;;;4.90;;
70369;SDS011;57790;51.356;-2.906;2023-04-21T07:50:58;13.05;;;4.50;;
70369;SDS011;57790;51.356;-2.906;2023-04-21T07:53:59;12.43;;;4.35;;
70369;SDS011;57790;51.356;-2.906;2023-04-21T07:56:59;17.43;;;5.17;;
70369;SDS011;57790;51.356;-2.906;2023-04-21T08:00:01;12.35;;;5.00;;
70369;SDS011;57790;51.356;-2.906;2023-04-21T08:03:02;12.37;;;5.10;;
70369;SDS011;57790;51.356;-2.906;2023-04-21T08:06:02;14.13;;;5.05;;
70369;SDS011;57790;51.356;-2.906;2023-04-21T08:09:03;12.80;;;4.90;;
70369;SDS011;57790;51.356;-2.906;2023-04-21T08:12:03;11.70;;;4.83;;
70369;SDS011;57790;51.356;-2.906;2023-04-21T08:15:04;10.50;;;4.10;;
70369;SDS011;57790;51.356;-2.906;2023-04-21T08:18:07;13.05;;;5.35;;
70369;SDS011;57790;51.356;-2.906;2023-04-21T08:21:08;14.63;;;4.80;;
70369;SDS011;57790;51.356;-2.906;2023-04-21T08:24:08;11.70;;;4.87;;
70369;SDS011;57790;51.356;-2.906;2023-04-21T08:27:08;12.60;;;4.23;;
70369;SDS011;57790;51.356;-2.906;2023-04-21T08:30:09;11.15;;;4.43;;
70369;SDS011;57790;51.356;-2.906;2023-04-21T08:33:10;11.77;;;4.40;;
70369;SDS011;57790;51.356;-2.906;2023-04-21T08:36:12;11.82;;;4.80;;
70369;SDS011;57790;51.356;-2.906;2023-04-21T08:39:15;12.43;;;4.23;;
70369;SDS011;57790;51.356;-2.906;2023-04-21T08:42:16;13.18;;;4.32;;
70369;SDS011;57790;51.356;-2.906;2023-04-21T08:45:17;11.95;;;4.28;;
70369;SDS011;57790;51.356;-2.906;2023-04-21T08:48:18;13.17;;;3.83;;
70369;SDS011;57790;51.356;-2.906;2023-04-21T08:51:22;11.82;;;4.28;;
70369;SDS011;57790;51.356;-2.906;2023-04-21T08:54:26;11.15;;;4.80;;
70369;SDS011;57790;51.356;-2.906;2023-04-21T08:57:26;12.83;;;4.53;;
70369;SDS011;57790;51.356;-2.906;2023-04-21T09:00:27;14.87;;;4.93;;
70369;SDS011;57790;51.356;-2.906;2023-04-21T09:03:28;12.87;;;4.57;;
70369;SDS011;57790;51.356;-2.906;2023-04-21T09:06:39;13.40;;;4.80;;
70369;SDS011;57790;51.356;-2.906;2023-04-21T09:09:52;12.57;;;4.60;;
70369;SDS011;57790;51.356;-2.906;2023-04-21T09:12:53;14.52;;;4.35;;
70369;SDS011;57790;51.356;-2.906;2023-04-21T09:15:54;11.30;;;4.73;;
70369;SDS011;57790;51.356;-2.906;2023-04-21T09:18:55;15.77;;;5.15;;
70369;SDS011;57790;51.356;-2.906;2023-04-21T09:21:55;11.90;;;4.33;;
70369;SDS011;57790;51.356;-2.906;2023-04-21T09:24:57;9.90;;;3.83;;
70369;SDS011;57790;51.356;-2.906;2023-04-21T09:27:59;12.40;;;3.80;;
70369;SDS011;57790;51.356;-2.906;2023-04-21T09:31:00;12.15;;;3.83;;
70369;SDS011;57790;51.356;-2.906;2023-04-21T09:34:00;11.07;;;3.80;;
70369;SDS011;57790;51.356;-2.906;2023-04-21T09:37:03;10.20;;;3.75;;
70369;SDS011;57790;51.356;-2.906;2023-04-21T09:40:04;9.90;;;3.60;;
70369;SDS011;57790;51.356;-2.906;2023-04-21T09:43:05;11.77;;;3.60;;
70369;SDS011;57790;51.356;-2.906;2023-04-21T09:46:06;11.95;;;3.90;;
70369;SDS011;57790;51.356;-2.906;2023-04-21T09:49:07;10.18;;;3.47;;
70369;SDS011;57790;51.356;-2.906;2023-04-21T09:52:10;10.27;;;4.00;;
70369;SDS011;57790;51.356;-2.906;2023-04-21T09:55:13;11.80;;;3.97;;
70369;SDS011;57790;51.356;-2.906;2023-04-21T09:58:14;11.73;;;3.88;;
70369;SDS011;57790;51.356;-2.906;2023-04-21T10:01:18;10.88;;;3.83;;
70369;SDS011;57790;51.356;-2.906;2023-04-21T10:04:19;10.95;;;3.53;;
70369;SDS011;57790;51.356;-2.906;2023-04-21T10:07:22;9.63;;;3.60;;
70369;SDS011;57790;51.356;-2.906;2023-04-21T10:10:23;10.20;;;3.30;;
70369;SDS011;57790;51.356;-2.906;2023-04-21T10:13:26;10.93;;;4.93;;
70369;SDS011;57790;51.356;-2.906;2023-04-21T10:16:27;12.40;;;5.10;;
70369;SDS011;57790;51.356;-2.906;2023-04-21T10:19:27;11.60;;;4.80;;
70369;SDS011;57790;51.356;-2.906;2023-04-21T10:22:28;11.35;;;4.43;;
70369;SDS011;57790;51.356;-2.906;2023-04-21T10:25:30;11.10;;;4.27;;
70369;SDS011;57790;51.356;-2.906;2023-04-21T10:28:41;10.18;;;4.15;;
70369;SDS011;57790;51.356;-2.906;2023-04-21T10:34:43;9.67;;;3.53;;
70369;SDS011;57790;51.356;-2.906;2023-04-21T10:37:44;9.35;;;3.70;;
70369;SDS011;57790;51.356;-2.906;2023-04-21T10:40:47;8.52;;;3.60;;
70369;SDS011;57790;51.356;-2.906;2023-04-21T10:43:47;11.80;;;4.03;;
70369;SDS011;57790;51.356;-2.906;2023-04-21T10:46:50;11.00;;;3.95;;
70369;SDS011;57790;51.356;-2.906;2023-04-21T10:49:52;11.10;;;4.27;;
70369;SDS011;57790;51.356;-2.906;2023-04-21T10:55:58;7.75;;;2.83;;
70369;SDS011;57790;51.356;-2.906;2023-04-21T10:58:59;9.23;;;2.92;;
70369;SDS011;57790;51.356;-2.906;2023-04-21T11:02:10;12.83;;;4.17;;
70369;SDS011;57790;51.356;-2.906;2023-04-21T11:05:11;9.43;;;3.60;;
70369;SDS011;57790;51.356;-2.906;2023-04-21T11:08:13;8.50;;;3.40;;
70369;SDS011;57790;51.356;-2.906;2023-04-21T11:11:20;9.93;;;3.57;;
70369;SDS011;57790;51.356;-2.906;2023-04-21T11:14:21;8.48;;;2.90;;
70369;SDS011;57790;51.356;-2.906;2023-04-21T11:17:22;7.43;;;2.53;;
70369;SDS011;57790;51.356;-2.906;2023-04-21T11:20:23;8.23;;;2.97;;
70369;SDS011;57790;51.356;-2.906;2023-04-21T11:23:24;8.25;;;3.05;;
70369;SDS011;57790;51.356;-2.906;2023-04-21T11:26:31;8.37;;;2.43;;
70369;SDS011;57790;51.356;-2.906;2023-04-21T11:29:37;7.63;;;2.50;;
70369;SDS011;57790;51.356;-2.906;2023-04-21T11:32:37;7.40;;;2.50;;
70369;SDS011;57790;51.356;-2.906;2023-04-21T11:35:39;8.47;;;2.80;;
70369;SDS011;57790;51.356;-2.906;2023-04-21T11:38:40;8.00;;;2.38;;
70369;SDS011;57790;51.356;-2.906;2023-04-21T11:41:41;8.20;;;3.00;;
70369;SDS011;57790;51.356;-2.906;2023-04-21T11:44:43;6.73;;;2.33;;
70369;SDS011;57790;51.356;-2.906;2023-04-21T11:47:44;8.10;;;2.70;;
70369;SDS011;57790;51.356;-2.906;2023-04-21T11:50:47;7.37;;;2.50;;
70369;SDS011;57790;51.356;-2.906;2023-04-21T11:53:49;7.50;;;2.60;;
70369;SDS011;57790;51.356;-2.906;2023-04-21T11:56:49;7.60;;;2.47;;
70369;SDS011;57790;51.356;-2.906;2023-04-21T11:59:51;7.55;;;2.55;;
70369;SDS011;57790;51.356;-2.906;2023-04-21T12:02:55;7.20;;;2.65;;
70369;SDS011;57790;51.356;-2.906;2023-04-21T12:05:55;7.03;;;2.20;;
70369;SDS011;57790;51.356;-2.906;2023-04-21T12:09:00;6.43;;;2.20;;
70369;SDS011;57790;51.356;-2.906;2023-04-21T12:12:02;6.90;;;2.55;;
70369;SDS011;57790;51.356;-2.906;2023-04-21T12:15:04;7.35;;;2.20;;
70369;SDS011;57790;51.356;-2.906;2023-04-21T12:18:11;7.55;;;2.60;;
70369;SDS011;57790;51.356;-2.906;2023-04-21T12:21:13;7.50;;;2.40;;
70369;SDS011;57790;51.356;-2.906;2023-04-21T12:24:15;6.33;;;2.10;;
70369;SDS011;57790;51.356;-2.906;2023-04-21T12:27:16;7.65;;;2.60;;
70369;SDS011;57790;51.356;-2.906;2023-04-21T12:30:18;7.05;;;2.15;;
70369;SDS011;57790;51.356;-2.906;2023-04-21T12:33:19;6.17;;;1.80;;
70369;SDS011;57790;51.356;-2.906;2023-04-21T12:36:19;7.15;;;2.17;;
70369;SDS011;57790;51.356;-2.906;2023-04-21T12:39:20;7.20;;;2.27;;
70369;SDS011;57790;51.356;-2.906;2023-04-21T12:42:21;6.22;;;1.80;;
70369;SDS011;57790;51.356;-2.906;2023-04-21T12:45:22;6.27;;;1.83;;
70369;SDS011;57790;51.356;-2.906;2023-04-21T12:48:22;7.07;;;2.10;;
70369;SDS011;57790;51.356;-2.906;2023-04-21T12:51:23;6.10;;;1.90;;
70369;SDS011;57790;51.356;-2.906;2023-04-21T12:54:23;6.23;;;1.70;;
70369;SDS011;57790;51.356;-2.906;2023-04-21T12:57:24;5.83;;;1.73;;
70369;SDS011;57790;51.356;-2.906;2023-04-21T13:00:24;5.78;;;1.63;;
70369;SDS011;57790;51.356;-2.906;2023-04-21T13:03:25;6.00;;;1.80;;
70369;SDS011;57790;51.356;-2.906;2023-04-21T13:06:25;6.73;;;2.03;;
70369;SDS011;57790;51.356;-2.906;2023-04-21T13:09:27;4.30;;;1.30;;
70369;SDS011;57790;51.356;-2.906;2023-04-21T13:12:27;6.10;;;1.60;;
70369;SDS011;57790;51.356;-2.906;2023-04-21T13:15:28;5.27;;;1.50;;
70369;SDS011;57790;51.356;-2.906;2023-04-21T13:18:28;6.00;;;1.53;;
70369;SDS011;57790;51.356;-2.906;2023-04-21T13:21:29;5.03;;;1.53;;
70369;SDS011;57790;51.356;-2.906;2023-04-21T13:24:31;6.05;;;1.73;;
70369;SDS011;57790;51.356;-2.906;2023-04-21T13:27:32;4.57;;;1.40;;
70369;SDS011;57790;51.356;-2.906;2023-04-21T13:30:33;5.20;;;1.60;;
70369;SDS011;57790;51.356;-2.906;2023-04-21T13:33:35;5.13;;;1.55;;
70369;SDS011;57790;51.356;-2.906;2023-04-21T13:36:35;5.80;;;1.47;;
70369;SDS011;57790;51.356;-2.906;2023-04-21T13:39:36;4.77;;;1.40;;
70369;SDS011;57790;51.356;-2.906;2023-04-21T13:42:36;4.20;;;1.33;;
70369;SDS011;57790;51.356;-2.906;2023-04-21T13:45:38;4.38;;;1.50;;
70369;SDS011;57790;51.356;-2.906;2023-04-21T13:48:38;4.33;;;1.30;;
70369;SDS011;57790;51.356;-2.906;2023-04-21T13:51:38;6.68;;;1.48;;
70369;SDS011;57790;51.356;-2.906;2023-04-21T13:54:39;5.37;;;1.40;;
70369;SDS011;57790;51.356;-2.906;2023-04-21T13:57:39;5.37;;;1.30;;
70369;SDS011;57790;51.356;-2.906;2023-04-21T14:00:40;4.80;;;1.30;;
70369;SDS011;57790;51.356;-2.906;2023-04-21T14:03:40;4.35;;;1.10;;
70369;SDS011;57790;51.356;-2.906;2023-04-21T14:06:41;4.63;;;1.20;;
70369;SDS011;57790;51.356;-2.906;2023-04-21T14:09:41;4.80;;;1.30;;
70369;SDS011;57790;51.356;-2.906;2023-04-21T14:12:42;4.43;;;1.30;;
70369;SDS011;57790;51.356;-2.906;2023-04-21T14:15:44;4.50;;;1.13;;
70369;SDS011;57790;51.356;-2.906;2023-04-21T14:18:44;4.60;;;1.20;;
70369;SDS011;57790;51.356;-2.906;2023-04-21T14:21:46;4.63;;;1.20;;
70369;SDS011;57790;51.356;-2.906;2023-04-21T14:24:46;4.30;;;1.27;;
70369;SDS011;57790;51.356;-2.906;2023-04-21T14:27:47;3.30;;;1.10;;
70369;SDS011;57790;51.356;-2.906;2023-04-21T14:30:47;4.70;;;1.30;;
70369;SDS011;57790;51.356;-2.906;2023-04-21T14:33:48;3.45;;;1.10;;
70369;SDS011;57790;51.356;-2.906;2023-04-21T14:36:48;5.00;;;1.30;;
70369;SDS011;57790;51.356;-2.906;2023-04-21T14:39:49;5.13;;;1.30;;
70369;SDS011;57790;51.356;-2.906;2023-04-21T14:42:49;3.72;;;1.00;;
70369;SDS011;57790;51.356;-2.906;2023-04-21T14:45:50;5.67;;;1.30;;
70369;SDS011;57790;51.356;-2.906;2023-04-21T14:48:52;5.43;;;1.30;;
70369;SDS011;57790;51.356;-2.906;2023-04-21T14:51:52;4.70;;;1.30;;
70369;SDS011;57790;51.356;-2.906;2023-04-21T14:54:53;5.15;;;1.45;;
70369;SDS011;57790;51.356;-2.906;2023-04-21T14:57:53;4.43;;;1.33;;
70369;SDS011;57790;51.356;-2.906;2023-04-21T15:00:54;4.57;;;1.20;;
70369;SDS011;57790;51.356;-2.906;2023-04-21T15:03:55;3.65;;;1.10;;
70369;SDS011;57790;51.356;-2.906;2023-04-21T15:06:58;4.97;;;1.25;;
70369;SDS011;57790;51.356;-2.906;2023-04-21T15:09:58;4.30;;;1.53;;
70369;SDS011;57790;51.356;-2.906;2023-04-21T15:12:59;4.53;;;1.47;;
70369;SDS011;57790;51.356;-2.906;2023-04-21T15:15:59;4.03;;;1.37;;
70369;SDS011;57790;51.356;-2.906;2023-04-21T15:19:00;5.05;;;1.33;;
70369;SDS011;57790;51.356;-2.906;2023-04-21T15:22:01;4.63;;;1.20;;
70369;SDS011;57790;51.356;-2.906;2023-04-21T15:25:03;4.95;;;1.30;;
70369;SDS011;57790;51.356;-2.906;2023-04-21T15:28:04;4.03;;;1.30;;
70369;SDS011;57790;51.356;-2.906;2023-04-21T15:31:06;5.15;;;1.55;;
70369;SDS011;57790;51.356;-2.906;2023-04-21T15:34:06;4.00;;;1.13;;
70369;SDS011;57790;51.356;-2.906;2023-04-21T15:37:07;4.80;;;1.50;;
70369;SDS011;57790;51.356;-2.906;2023-04-21T15:40:07;4.70;;;1.27;;
70369;SDS011;57790;51.356;-2.906;2023-04-21T15:43:08;4.23;;;1.30;;
70369;SDS011;57790;51.356;-2.906;2023-04-21T15:46:09;4.50;;;1.20;;
70369;SDS011;57790;51.356;-2.906;2023-04-21T15:49:12;5.63;;;1.77;;
70369;SDS011;57790;51.356;-2.906;2023-04-21T15:52:12;6.37;;;1.50;;
70369;SDS011;57790;51.356;-2.906;2023-04-21T15:55:13;5.13;;;1.50;;
70369;SDS011;57790;51.356;-2.906;2023-04-21T15:58:14;5.20;;;1.52;;
70369;SDS011;57790;51.356;-2.906;2023-04-21T16:01:14;4.73;;;1.60;;
70369;SDS011;57790;51.356;-2.906;2023-04-21T16:04:15;5.45;;;1.77;;
70369;SDS011;57790;51.356;-2.906;2023-04-21T16:07:15;5.30;;;1.50;;
70369;SDS011;57790;51.356;-2.906;2023-04-21T16:10:16;4.90;;;1.50;;
70369;SDS011;57790;51.356;-2.906;2023-04-21T16:13:17;4.35;;;1.27;;
70369;SDS011;57790;51.356;-2.906;2023-04-21T16:16:17;4.90;;;1.50;;
70369;SDS011;57790;51.356;-2.906;2023-04-21T16:19:17;4.40;;;1.30;;
70369;SDS011;57790;51.356;-2.906;2023-04-21T16:22:18;4.77;;;1.40;;
70369;SDS011;57790;51.356;-2.906;2023-04-21T16:25:19;4.85;;;1.23;;
70369;SDS011;57790;51.356;-2.906;2023-04-21T16:28:19;4.97;;;1.47;;
70369;SDS011;57790;51.356;-2.906;2023-04-21T16:31:20;5.07;;;1.37;;
70369;SDS011;57790;51.356;-2.906;2023-04-21T16:34:20;5.47;;;1.60;;
70369;SDS011;57790;51.356;-2.906;2023-04-21T16:37:21;4.57;;;1.50;;
70369;SDS011;57790;51.356;-2.906;2023-04-21T16:40:22;4.03;;;1.20;;
70369;SDS011;57790;51.356;-2.906;2023-04-21T16:43:24;4.45;;;1.40;;
70369;SDS011;57790;51.356;-2.906;2023-04-21T16:46:24;5.40;;;1.65;;
70369;SDS011;57790;51.356;-2.906;2023-04-21T16:49:25;4.00;;;1.30;;
70369;SDS011;57790;51.356;-2.906;2023-04-21T16:52:25;4.70;;;1.37;;
70369;SDS011;57790;51.356;-2.906;2023-04-21T16:55:26;4.20;;;1.30;;
70369;SDS011;57790;51.356;-2.906;2023-04-21T16:58:27;4.43;;;1.40;;
70369;SDS011;57790;51.356;-2.906;2023-04-21T17:01:27;6.20;;;1.70;;
70369;SDS011;57790;51.356;-2.906;2023-04-21T17:04:28;5.07;;;1.40;;
70369;SDS011;57790;51.356;-2.906;2023-04-21T17:07:28;4.80;;;1.60;;
70369;SDS011;57790;51.356;-2.906;2023-04-21T17:10:30;5.85;;;1.58;;
70369;SDS011;57790;51.356;-2.906;2023-04-21T17:13:30;5.87;;;1.50;;
70369;SDS011;57790;51.356;-2.906;2023-04-21T17:16:33;4.20;;;1.20;;
70369;SDS011;57790;51.356;-2.906;2023-04-21T17:19:33;4.73;;;1.40;;
70369;SDS011;57790;51.356;-2.906;2023-04-21T17:22:34;4.90;;;1.20;;
70369;SDS011;57790;51.356;-2.906;2023-04-21T17:25:35;5.25;;;1.38;;
70369;SDS011;57790;51.356;-2.906;2023-04-21T17:28:37;6.32;;;1.45;;
70369;SDS011;57790;51.356;-2.906;2023-04-21T17:31:37;4.17;;;1.20;;
70369;SDS011;57790;51.356;-2.906;2023-04-21T17:34:38;5.00;;;1.40;;
70369;SDS011;57790;51.356;-2.906;2023-04-21T17:37:38;3.58;;;1.10;;
70369;SDS011;57790;51.356;-2.906;2023-04-21T17:40:39;4.67;;;1.23;;
70369;SDS011;57790;51.356;-2.906;2023-04-21T17:43:39;3.90;;;1.10;;
70369;SDS011;57790;51.356;-2.906;2023-04-21T17:46:40;4.07;;;1.20;;
70369;SDS011;57790;51.356;-2.906;2023-04-21T17:49:42;6.07;;;1.80;;
70369;SDS011;57790;51.356;-2.906;2023-04-21T17:52:43;5.13;;;1.58;;
70369;SDS011;57790;51.356;-2.906;2023-04-21T17:55:43;4.57;;;1.40;;